POGODA: Poland

Lotnisko: Gdansk-Rebiechowo

METAR KOD: EPGD


METAR: EPGD 181900Z 13006KT CAVOK 14/07 Q1019


BLOK
Pogoda METAR
181900Z
Dzien: 18, Godzina: 19:00 UTC.
13006KT
Wiatr z kierunku 130, o predkosci 11 km/h
CAVOK
Widzialnosc pow. 10 km, brak chmur pon. 1500 m., brak CB, brak opadow, burz i innych
14/07
Temperatura: powietrze 14°C, punkt rosy 7°C . Wilgotnosc wzgledna 50 %
Q1019
Cisnienie: 1019 hPa

Pogoda na innym lotnisku

Pogoda Gdansk-Rebiechowo WEATHER Poland  
Pogoda Katowice WEATHER Poland  
Pogoda Krakow WEATHER Poland  
Pogoda Poznan WEATHER Poland  
Pogoda Rzeszow-Jasionka WEATHER Poland  
Pogoda Szczecin WEATHER Poland  
Pogoda Warszawa-Okecie WEATHER Poland  
Pogoda Wroclaw Ii WEATHER Poland  

Pogoda w inny kraju

Strona startowa

(C) by GREGOR 2007
Ogłoszenia Towarzyskie